Terminal Aerodrome Forecast
Issued by NWS Portland, OR

Home | Current Version | Previous Version | Text Only | Print | Product List | Glossary On
Versions: 1 2 3 4 5 6 7 8 9 10 11 12 13 14 15 16 17 18 19 20 21 22 23 24 25 26 27
000
FTUS46 KPQR 250902 AAA
TAFPDX
TAF AMD
KPDX 250902Z 2509/2606 32005KT P6SM BKN060
     FM251500 32004KT P6SM BKN025 BKN060
     FM251900 30005KT P6SM BKN035
     FM252300 28010KT P6SM SCT040=

USA.gov is the U.S. government's official web portal to all federal, state and local government web resources and services.